sensor_id;sensor_type;location;lat;lon;timestamp;temperature;humidity
59128;DHT22;44912;52.754;5.994;2022-10-04T00:01:53;12.60;99.90
59128;DHT22;44912;52.754;5.994;2022-10-04T00:04:30;12.70;99.90
59128;DHT22;44912;52.754;5.994;2022-10-04T00:07:03;12.70;99.90
59128;DHT22;44912;52.754;5.994;2022-10-04T00:09:42;12.70;99.90
59128;DHT22;44912;52.754;5.994;2022-10-04T00:14:52;12.70;99.90
59128;DHT22;44912;52.754;5.994;2022-10-04T00:17:25;12.70;99.90
59128;DHT22;44912;52.754;5.994;2022-10-04T00:19:53;12.80;99.90
59128;DHT22;44912;52.754;5.994;2022-10-04T00:22:26;12.70;99.90
59128;DHT22;44912;52.754;5.994;2022-10-04T00:27:37;12.70;99.90
59128;DHT22;44912;52.754;5.994;2022-10-04T00:37:58;12.70;99.90
59128;DHT22;44912;52.754;5.994;2022-10-04T00:40:45;12.60;99.90
59128;DHT22;44912;52.754;5.994;2022-10-04T00:46:10;12.70;99.90
59128;DHT22;44912;52.754;5.994;2022-10-04T00:48:43;12.60;99.90
59128;DHT22;44912;52.754;5.994;2022-10-04T00:51:33;12.60;99.90
59128;DHT22;44912;52.754;5.994;2022-10-04T00:54:12;12.60;99.90
59128;DHT22;44912;52.754;5.994;2022-10-04T00:56:48;12.60;99.90
59128;DHT22;44912;52.754;5.994;2022-10-04T01:02:19;12.60;99.90
59128;DHT22;44912;52.754;5.994;2022-10-04T01:05:09;12.60;99.90
59128;DHT22;44912;52.754;5.994;2022-10-04T01:08:03;12.60;99.90
59128;DHT22;44912;52.754;5.994;2022-10-04T01:10:55;12.60;99.90
59128;DHT22;44912;52.754;5.994;2022-10-04T01:16:03;12.60;99.90
59128;DHT22;44912;52.754;5.994;2022-10-04T01:18:34;12.60;99.90
59128;DHT22;44912;52.754;5.994;2022-10-04T01:23:50;12.60;99.90
59128;DHT22;44912;52.754;5.994;2022-10-04T01:28:54;12.60;99.90
59128;DHT22;44912;52.754;5.994;2022-10-04T01:31:20;12.50;99.90
59128;DHT22;44912;52.754;5.994;2022-10-04T01:33:46;12.40;99.90
59128;DHT22;44912;52.754;5.994;2022-10-04T01:36:12;12.40;99.90
59128;DHT22;44912;52.754;5.994;2022-10-04T01:38:38;12.40;99.90
59128;DHT22;44912;52.754;5.994;2022-10-04T01:41:05;12.40;99.90
59128;DHT22;44912;52.754;5.994;2022-10-04T01:43:36;12.40;99.90
59128;DHT22;44912;52.754;5.994;2022-10-04T01:46:09;12.40;99.90
59128;DHT22;44912;52.754;5.994;2022-10-04T01:48:37;12.40;99.90
59128;DHT22;44912;52.754;5.994;2022-10-04T01:51:17;12.50;99.90
59128;DHT22;44912;52.754;5.994;2022-10-04T01:53:49;12.50;99.90
59128;DHT22;44912;52.754;5.994;2022-10-04T01:56:19;12.30;99.90
59128;DHT22;44912;52.754;5.994;2022-10-04T01:58:49;12.20;99.90
59128;DHT22;44912;52.754;5.994;2022-10-04T02:01:22;12.00;99.90
59128;DHT22;44912;52.754;5.994;2022-10-04T02:03:57;12.00;99.90
59128;DHT22;44912;52.754;5.994;2022-10-04T02:06:24;11.90;99.90
59128;DHT22;44912;52.754;5.994;2022-10-04T02:08:52;11.90;99.90
59128;DHT22;44912;52.754;5.994;2022-10-04T02:11:23;11.90;99.90
59128;DHT22;44912;52.754;5.994;2022-10-04T02:13:51;11.90;99.90
59128;DHT22;44912;52.754;5.994;2022-10-04T02:16:19;11.90;99.90
59128;DHT22;44912;52.754;5.994;2022-10-04T02:18:46;11.90;99.90
59128;DHT22;44912;52.754;5.994;2022-10-04T02:21:14;11.80;99.90
59128;DHT22;44912;52.754;5.994;2022-10-04T02:23:41;11.80;99.90
59128;DHT22;44912;52.754;5.994;2022-10-04T02:26:09;11.80;99.90
59128;DHT22;44912;52.754;5.994;2022-10-04T02:28:36;11.80;99.90
59128;DHT22;44912;52.754;5.994;2022-10-04T02:31:03;11.80;99.90
59128;DHT22;44912;52.754;5.994;2022-10-04T02:34:01;11.80;99.90
59128;DHT22;44912;52.754;5.994;2022-10-04T02:36:28;11.80;99.90
59128;DHT22;44912;52.754;5.994;2022-10-04T02:39:13;11.80;99.90
59128;DHT22;44912;52.754;5.994;2022-10-04T02:42:12;11.80;99.90
59128;DHT22;44912;52.754;5.994;2022-10-04T02:44:44;11.80;99.90
59128;DHT22;44912;52.754;5.994;2022-10-04T02:47:19;11.80;99.90
59128;DHT22;44912;52.754;5.994;2022-10-04T02:49:52;11.80;99.90
59128;DHT22;44912;52.754;5.994;2022-10-04T02:52:25;11.80;99.90
59128;DHT22;44912;52.754;5.994;2022-10-04T02:55:12;11.90;99.90
59128;DHT22;44912;52.754;5.994;2022-10-04T02:57:42;11.90;99.90
59128;DHT22;44912;52.754;5.994;2022-10-04T03:00:29;11.90;99.90
59128;DHT22;44912;52.754;5.994;2022-10-04T03:05:54;11.80;99.90
59128;DHT22;44912;52.754;5.994;2022-10-04T03:08:20;11.80;99.90
59128;DHT22;44912;52.754;5.994;2022-10-04T03:10:46;11.80;99.90
59128;DHT22;44912;52.754;5.994;2022-10-04T03:13:12;11.80;99.90
59128;DHT22;44912;52.754;5.994;2022-10-04T03:15:40;11.80;99.90
59128;DHT22;44912;52.754;5.994;2022-10-04T03:18:07;11.80;99.90
59128;DHT22;44912;52.754;5.994;2022-10-04T03:20:36;11.80;99.90
59128;DHT22;44912;52.754;5.994;2022-10-04T03:23:03;11.80;99.90
59128;DHT22;44912;52.754;5.994;2022-10-04T03:28:10;11.80;99.90
59128;DHT22;44912;52.754;5.994;2022-10-04T03:30:35;11.80;99.90
59128;DHT22;44912;52.754;5.994;2022-10-04T03:33:02;11.80;99.90
59128;DHT22;44912;52.754;5.994;2022-10-04T03:35:36;11.80;99.90
59128;DHT22;44912;52.754;5.994;2022-10-04T03:38:06;11.80;99.90
59128;DHT22;44912;52.754;5.994;2022-10-04T03:40:35;11.70;99.90
59128;DHT22;44912;52.754;5.994;2022-10-04T03:43:04;11.70;99.90
59128;DHT22;44912;52.754;5.994;2022-10-04T03:45:30;11.60;99.90
59128;DHT22;44912;52.754;5.994;2022-10-04T03:48:03;11.60;99.90
59128;DHT22;44912;52.754;5.994;2022-10-04T03:50:53;11.50;99.90
59128;DHT22;44912;52.754;5.994;2022-10-04T03:53:36;11.50;99.90
59128;DHT22;44912;52.754;5.994;2022-10-04T03:56:28;11.50;99.90
59128;DHT22;44912;52.754;5.994;2022-10-04T03:58:55;11.50;99.90
59128;DHT22;44912;52.754;5.994;2022-10-04T04:04:02;11.40;99.90
59128;DHT22;44912;52.754;5.994;2022-10-04T04:06:41;11.40;99.90
59128;DHT22;44912;52.754;5.994;2022-10-04T04:09:20;11.40;99.90
59128;DHT22;44912;52.754;5.994;2022-10-04T04:11:48;11.40;99.90
59128;DHT22;44912;52.754;5.994;2022-10-04T04:14:20;11.40;99.90
59128;DHT22;44912;52.754;5.994;2022-10-04T04:16:47;11.40;99.90
59128;DHT22;44912;52.754;5.994;2022-10-04T04:19:16;11.30;99.90
59128;DHT22;44912;52.754;5.994;2022-10-04T04:21:43;11.30;99.90
59128;DHT22;44912;52.754;5.994;2022-10-04T04:24:29;11.30;99.90
59128;DHT22;44912;52.754;5.994;2022-10-04T04:27:01;11.30;99.90
59128;DHT22;44912;52.754;5.994;2022-10-04T04:29:41;11.30;99.90
59128;DHT22;44912;52.754;5.994;2022-10-04T04:32:15;11.30;99.90
59128;DHT22;44912;52.754;5.994;2022-10-04T04:34:57;11.30;99.90
59128;DHT22;44912;52.754;5.994;2022-10-04T04:37:23;11.30;99.90
59128;DHT22;44912;52.754;5.994;2022-10-04T04:39:50;11.20;99.90
59128;DHT22;44912;52.754;5.994;2022-10-04T04:42:32;11.20;99.90
59128;DHT22;44912;52.754;5.994;2022-10-04T04:45:12;11.20;99.90
59128;DHT22;44912;52.754;5.994;2022-10-04T04:47:48;11.10;99.90
59128;DHT22;44912;52.754;5.994;2022-10-04T04:50:19;11.10;99.90
59128;DHT22;44912;52.754;5.994;2022-10-04T04:52:54;11.10;99.90
59128;DHT22;44912;52.754;5.994;2022-10-04T04:55:24;11.10;99.90
59128;DHT22;44912;52.754;5.994;2022-10-04T04:57:52;11.10;99.90
59128;DHT22;44912;52.754;5.994;2022-10-04T05:00:22;11.10;99.90
59128;DHT22;44912;52.754;5.994;2022-10-04T05:02:57;11.10;99.90
59128;DHT22;44912;52.754;5.994;2022-10-04T05:05:30;11.10;99.90
59128;DHT22;44912;52.754;5.994;2022-10-04T05:08:22;11.10;99.90
59128;DHT22;44912;52.754;5.994;2022-10-04T05:11:00;11.10;99.90
59128;DHT22;44912;52.754;5.994;2022-10-04T05:13:51;11.10;99.90
59128;DHT22;44912;52.754;5.994;2022-10-04T05:16:22;11.10;99.90
59128;DHT22;44912;52.754;5.994;2022-10-04T05:19:02;11.10;99.90
59128;DHT22;44912;52.754;5.994;2022-10-04T05:21:30;11.10;99.90
59128;DHT22;44912;52.754;5.994;2022-10-04T05:23:57;11.10;99.90
59128;DHT22;44912;52.754;5.994;2022-10-04T05:26:30;11.10;99.90
59128;DHT22;44912;52.754;5.994;2022-10-04T05:29:06;11.10;99.90
59128;DHT22;44912;52.754;5.994;2022-10-04T05:34:22;11.10;99.90
59128;DHT22;44912;52.754;5.994;2022-10-04T05:36:59;11.10;99.90
59128;DHT22;44912;52.754;5.994;2022-10-04T05:42:38;11.10;99.90
59128;DHT22;44912;52.754;5.994;2022-10-04T05:45:21;11.10;99.90
59128;DHT22;44912;52.754;5.994;2022-10-04T05:47:53;11.10;99.90
59128;DHT22;44912;52.754;5.994;2022-10-04T05:50:28;11.20;99.90
59128;DHT22;44912;52.754;5.994;2022-10-04T05:53:10;11.10;99.90
59128;DHT22;44912;52.754;5.994;2022-10-04T05:55:53;11.10;99.90
59128;DHT22;44912;52.754;5.994;2022-10-04T06:01:05;11.10;99.90
59128;DHT22;44912;52.754;5.994;2022-10-04T06:12:01;11.00;99.90
59128;DHT22;44912;52.754;5.994;2022-10-04T06:15:03;11.00;99.90
59128;DHT22;44912;52.754;5.994;2022-10-04T06:18:07;11.00;99.90
59128;DHT22;44912;52.754;5.994;2022-10-04T06:23:14;11.00;99.90
59128;DHT22;44912;52.754;5.994;2022-10-04T06:25:48;11.00;99.90
59128;DHT22;44912;52.754;5.994;2022-10-04T06:42:40;11.10;99.90
59128;DHT22;44912;52.754;5.994;2022-10-04T06:50:54;11.10;99.90
59128;DHT22;44912;52.754;5.994;2022-10-04T07:02:15;11.30;99.90
59128;DHT22;44912;52.754;5.994;2022-10-04T07:04:56;11.40;99.90
59128;DHT22;44912;52.754;5.994;2022-10-04T07:07:31;11.40;99.90
59128;DHT22;44912;52.754;5.994;2022-10-04T07:10:22;11.50;99.90
59128;DHT22;44912;52.754;5.994;2022-10-04T07:15:46;11.70;99.90
59128;DHT22;44912;52.754;5.994;2022-10-04T07:18:19;11.80;99.90
59128;DHT22;44912;52.754;5.994;2022-10-04T07:20:49;11.90;99.90
59128;DHT22;44912;52.754;5.994;2022-10-04T07:23:31;12.00;99.90
59128;DHT22;44912;52.754;5.994;2022-10-04T07:26:04;12.10;99.90
59128;DHT22;44912;52.754;5.994;2022-10-04T07:28:33;12.20;99.90
59128;DHT22;44912;52.754;5.994;2022-10-04T07:31:27;12.30;99.90
59128;DHT22;44912;52.754;5.994;2022-10-04T07:33:58;12.50;99.90
59128;DHT22;44912;52.754;5.994;2022-10-04T07:36:28;12.50;99.90
59128;DHT22;44912;52.754;5.994;2022-10-04T07:39:06;12.60;99.90
59128;DHT22;44912;52.754;5.994;2022-10-04T07:41:42;12.70;99.90
59128;DHT22;44912;52.754;5.994;2022-10-04T07:44:24;12.70;99.90
59128;DHT22;44912;52.754;5.994;2022-10-04T07:47:22;12.80;99.90
59128;DHT22;44912;52.754;5.994;2022-10-04T07:49:50;12.80;99.90
59128;DHT22;44912;52.754;5.994;2022-10-04T07:52:46;12.80;99.90
59128;DHT22;44912;52.754;5.994;2022-10-04T07:55:36;12.90;99.90
59128;DHT22;44912;52.754;5.994;2022-10-04T07:58:32;13.00;99.90
59128;DHT22;44912;52.754;5.994;2022-10-04T08:01:32;13.10;99.90
59128;DHT22;44912;52.754;5.994;2022-10-04T08:04:35;13.20;99.90
59128;DHT22;44912;52.754;5.994;2022-10-04T08:07:09;13.40;99.90
59128;DHT22;44912;52.754;5.994;2022-10-04T08:10:15;13.50;99.90
59128;DHT22;44912;52.754;5.994;2022-10-04T08:13:07;13.60;99.90
59128;DHT22;44912;52.754;5.994;2022-10-04T08:15:39;13.60;99.90
59128;DHT22;44912;52.754;5.994;2022-10-04T08:18:31;13.60;99.90
59128;DHT22;44912;52.754;5.994;2022-10-04T08:21:06;13.50;99.90
59128;DHT22;44912;52.754;5.994;2022-10-04T08:23:49;13.50;99.90
59128;DHT22;44912;52.754;5.994;2022-10-04T08:26:52;13.50;99.90
59128;DHT22;44912;52.754;5.994;2022-10-04T08:38:17;13.40;99.90
59128;DHT22;44912;52.754;5.994;2022-10-04T08:41:43;13.40;99.90
59128;DHT22;44912;52.754;5.994;2022-10-04T08:44:54;13.30;99.90
59128;DHT22;44912;52.754;5.994;2022-10-04T08:53:23;13.70;99.90
59128;DHT22;44912;52.754;5.994;2022-10-04T08:56:12;13.80;99.90
59128;DHT22;44912;52.754;5.994;2022-10-04T08:59:14;14.00;99.90
59128;DHT22;44912;52.754;5.994;2022-10-04T09:01:56;14.20;99.90
59128;DHT22;44912;52.754;5.994;2022-10-04T09:30:04;15.00;99.90
59128;DHT22;44912;52.754;5.994;2022-10-04T09:35:49;15.10;99.90
59128;DHT22;44912;52.754;5.994;2022-10-04T09:46:25;15.70;99.90
59128;DHT22;44912;52.754;5.994;2022-10-04T09:55:50;16.00;99.90
59128;DHT22;44912;52.754;5.994;2022-10-04T09:57:43;16.00;99.90
59128;DHT22;44912;52.754;5.994;2022-10-04T10:00:17;15.90;99.90
59128;DHT22;44912;52.754;5.994;2022-10-04T10:06:03;16.00;99.90
59128;DHT22;44912;52.754;5.994;2022-10-04T10:17:37;16.60;99.90
59128;DHT22;44912;52.754;5.994;2022-10-04T10:31:54;17.10;99.90
59128;DHT22;44912;52.754;5.994;2022-10-04T10:34:31;17.20;99.90
59128;DHT22;44912;52.754;5.994;2022-10-04T10:37:47;17.10;99.90
59128;DHT22;44912;52.754;5.994;2022-10-04T10:43:30;17.10;99.90
59128;DHT22;44912;52.754;5.994;2022-10-04T10:46:19;17.10;99.90
59128;DHT22;44912;52.754;5.994;2022-10-04T10:48:55;16.90;99.90
59128;DHT22;44912;52.754;5.994;2022-10-04T10:52:12;16.90;99.90
59128;DHT22;44912;52.754;5.994;2022-10-04T11:00:17;17.40;99.90
59128;DHT22;44912;52.754;5.994;2022-10-04T11:06:06;17.70;99.90
59128;DHT22;44912;52.754;5.994;2022-10-04T11:11:35;17.90;99.90
59128;DHT22;44912;52.754;5.994;2022-10-04T11:40:05;17.70;99.90
59128;DHT22;44912;52.754;5.994;2022-10-04T11:42:57;17.60;99.90
59128;DHT22;44912;52.754;5.994;2022-10-04T11:48:15;17.50;99.90
59128;DHT22;44912;52.754;5.994;2022-10-04T11:56:19;17.70;99.90
59128;DHT22;44912;52.754;5.994;2022-10-04T12:02:07;17.70;99.90
59128;DHT22;44912;52.754;5.994;2022-10-04T12:10:40;17.90;99.90
59128;DHT22;44912;52.754;5.994;2022-10-04T12:23:56;17.90;99.90
59128;DHT22;44912;52.754;5.994;2022-10-04T12:34:55;18.10;99.90
59128;DHT22;44912;52.754;5.994;2022-10-04T12:40:25;18.30;99.90
59128;DHT22;44912;52.754;5.994;2022-10-04T12:53:37;17.50;99.90
59128;DHT22;44912;52.754;5.994;2022-10-04T12:58:59;17.40;99.90
59128;DHT22;44912;52.754;5.994;2022-10-04T13:02:13;17.40;99.90
59128;DHT22;44912;52.754;5.994;2022-10-04T13:07:09;17.40;99.90
59128;DHT22;44912;52.754;5.994;2022-10-04T13:15:40;17.50;99.90
59128;DHT22;44912;52.754;5.994;2022-10-04T13:20:59;17.60;99.90
59128;DHT22;44912;52.754;5.994;2022-10-04T13:29:01;17.90;99.90
59128;DHT22;44912;52.754;5.994;2022-10-04T13:31:47;18.00;99.90
59128;DHT22;44912;52.754;5.994;2022-10-04T13:37:35;18.00;99.90
59128;DHT22;44912;52.754;5.994;2022-10-04T13:43:03;18.10;99.90
59128;DHT22;44912;52.754;5.994;2022-10-04T13:45:56;18.00;99.90
59128;DHT22;44912;52.754;5.994;2022-10-04T13:51:38;18.10;99.90
59128;DHT22;44912;52.754;5.994;2022-10-04T13:54:10;18.10;99.90
59128;DHT22;44912;52.754;5.994;2022-10-04T13:57:20;18.00;99.90
59128;DHT22;44912;52.754;5.994;2022-10-04T14:00:07;18.00;99.90
59128;DHT22;44912;52.754;5.994;2022-10-04T14:02:57;18.00;99.90
59128;DHT22;44912;52.754;5.994;2022-10-04T14:06:04;18.00;99.90
59128;DHT22;44912;52.754;5.994;2022-10-04T14:14:18;18.00;99.90
59128;DHT22;44912;52.754;5.994;2022-10-04T14:17:53;18.20;99.90
59128;DHT22;44912;52.754;5.994;2022-10-04T14:20:09;18.30;99.90
59128;DHT22;44912;52.754;5.994;2022-10-04T14:23:19;18.40;99.90
59128;DHT22;44912;52.754;5.994;2022-10-04T14:34:55;18.50;99.90
59128;DHT22;44912;52.754;5.994;2022-10-04T14:40:39;18.60;99.90
59128;DHT22;44912;52.754;5.994;2022-10-04T14:46:24;18.50;99.90
59128;DHT22;44912;52.754;5.994;2022-10-04T14:57:05;18.70;99.90
59128;DHT22;44912;52.754;5.994;2022-10-04T15:10:57;18.40;99.90
59128;DHT22;44912;52.754;5.994;2022-10-04T15:16:54;18.10;99.90
59128;DHT22;44912;52.754;5.994;2022-10-04T15:19:25;18.00;99.90
59128;DHT22;44912;52.754;5.994;2022-10-04T15:24:30;18.10;99.90
59128;DHT22;44912;52.754;5.994;2022-10-04T15:32:59;18.50;99.90
59128;DHT22;44912;52.754;5.994;2022-10-04T15:35:45;18.60;99.90
59128;DHT22;44912;52.754;5.994;2022-10-04T15:46:45;18.60;99.90
59128;DHT22;44912;52.754;5.994;2022-10-04T15:49:25;18.40;99.90
59128;DHT22;44912;52.754;5.994;2022-10-04T15:55:04;18.10;99.90
59128;DHT22;44912;52.754;5.994;2022-10-04T16:03:02;17.70;99.90
59128;DHT22;44912;52.754;5.994;2022-10-04T16:08:20;17.40;99.90
59128;DHT22;44912;52.754;5.994;2022-10-04T16:11:05;17.30;99.90
59128;DHT22;44912;52.754;5.994;2022-10-04T16:21:30;17.00;99.90
59128;DHT22;44912;52.754;5.994;2022-10-04T16:29:31;16.80;99.90
59128;DHT22;44912;52.754;5.994;2022-10-04T16:34:49;16.70;99.90
59128;DHT22;44912;52.754;5.994;2022-10-04T16:42:47;16.60;99.90
59128;DHT22;44912;52.754;5.994;2022-10-04T16:45:30;16.50;99.90
59128;DHT22;44912;52.754;5.994;2022-10-04T16:48:01;16.40;99.90
59128;DHT22;44912;52.754;5.994;2022-10-04T17:04:51;16.30;99.90
59128;DHT22;44912;52.754;5.994;2022-10-04T17:10:41;16.30;99.90
59128;DHT22;44912;52.754;5.994;2022-10-04T17:13:33;16.30;99.90
59128;DHT22;44912;52.754;5.994;2022-10-04T17:16:11;16.30;99.90
59128;DHT22;44912;52.754;5.994;2022-10-04T17:19:12;16.30;99.90
59128;DHT22;44912;52.754;5.994;2022-10-04T17:24:30;16.30;99.90
59128;DHT22;44912;52.754;5.994;2022-10-04T17:27:20;16.30;99.90
59128;DHT22;44912;52.754;5.994;2022-10-04T17:32:41;16.30;99.90
59128;DHT22;44912;52.754;5.994;2022-10-04T17:38:06;16.30;99.90
59128;DHT22;44912;52.754;5.994;2022-10-04T17:40:46;16.30;99.90
59128;DHT22;44912;52.754;5.994;2022-10-04T17:43:23;16.20;99.90
59128;DHT22;44912;52.754;5.994;2022-10-04T17:48:27;16.20;99.90
59128;DHT22;44912;52.754;5.994;2022-10-04T17:54:15;16.20;99.90
59128;DHT22;44912;52.754;5.994;2022-10-04T17:59:40;16.20;99.90
59128;DHT22;44912;52.754;5.994;2022-10-04T18:02:26;16.20;99.90
59128;DHT22;44912;52.754;5.994;2022-10-04T18:04:56;16.20;99.90
59128;DHT22;44912;52.754;5.994;2022-10-04T18:07:27;16.20;99.90
59128;DHT22;44912;52.754;5.994;2022-10-04T18:10:22;16.20;99.90
59128;DHT22;44912;52.754;5.994;2022-10-04T18:13:02;16.20;99.90
59128;DHT22;44912;52.754;5.994;2022-10-04T18:18:27;16.20;99.90
59128;DHT22;44912;52.754;5.994;2022-10-04T18:21:01;16.20;99.90
59128;DHT22;44912;52.754;5.994;2022-10-04T18:23:32;16.20;99.90
59128;DHT22;44912;52.754;5.994;2022-10-04T18:26:12;16.20;99.90
59128;DHT22;44912;52.754;5.994;2022-10-04T18:28:41;16.20;99.90
59128;DHT22;44912;52.754;5.994;2022-10-04T18:31:28;16.10;99.90
59128;DHT22;44912;52.754;5.994;2022-10-04T18:33:55;16.10;99.90
59128;DHT22;44912;52.754;5.994;2022-10-04T18:36:22;16.10;99.90
59128;DHT22;44912;52.754;5.994;2022-10-04T18:41:43;16.10;99.90
59128;DHT22;44912;52.754;5.994;2022-10-04T18:44:24;16.10;99.90
59128;DHT22;44912;52.754;5.994;2022-10-04T18:46:57;16.10;99.90
59128;DHT22;44912;52.754;5.994;2022-10-04T18:49:29;16.20;99.90
59128;DHT22;44912;52.754;5.994;2022-10-04T18:57:42;16.20;99.90
59128;DHT22;44912;52.754;5.994;2022-10-04T19:00:37;16.10;99.90
59128;DHT22;44912;52.754;5.994;2022-10-04T19:03:57;16.10;99.90
59128;DHT22;44912;52.754;5.994;2022-10-04T19:06:25;16.10;99.90
59128;DHT22;44912;52.754;5.994;2022-10-04T19:11:41;16.20;99.90
59128;DHT22;44912;52.754;5.994;2022-10-04T19:17:36;16.20;99.90
59128;DHT22;44912;52.754;5.994;2022-10-04T19:20:22;16.20;99.90
59128;DHT22;44912;52.754;5.994;2022-10-04T19:22:52;16.10;99.90
59128;DHT22;44912;52.754;5.994;2022-10-04T19:25:27;16.10;99.90
59128;DHT22;44912;52.754;5.994;2022-10-04T19:30:40;16.10;99.90
59128;DHT22;44912;52.754;5.994;2022-10-04T19:33:15;16.10;99.90
59128;DHT22;44912;52.754;5.994;2022-10-04T19:38:49;16.10;99.90
59128;DHT22;44912;52.754;5.994;2022-10-04T19:43:57;16.10;99.90
59128;DHT22;44912;52.754;5.994;2022-10-04T19:46:44;16.10;99.90
59128;DHT22;44912;52.754;5.994;2022-10-04T19:49:21;16.10;99.90
59128;DHT22;44912;52.754;5.994;2022-10-04T19:52:11;16.10;99.90
59128;DHT22;44912;52.754;5.994;2022-10-04T19:54:39;16.10;99.90
59128;DHT22;44912;52.754;5.994;2022-10-04T19:57:12;16.10;99.90
59128;DHT22;44912;52.754;5.994;2022-10-04T19:59:40;16.10;99.90
59128;DHT22;44912;52.754;5.994;2022-10-04T20:02:10;16.00;99.90
59128;DHT22;44912;52.754;5.994;2022-10-04T20:04:36;16.00;99.90
59128;DHT22;44912;52.754;5.994;2022-10-04T20:07:19;16.00;99.90
59128;DHT22;44912;52.754;5.994;2022-10-04T20:12:43;16.10;99.90
59128;DHT22;44912;52.754;5.994;2022-10-04T20:17:42;16.10;99.90
59128;DHT22;44912;52.754;5.994;2022-10-04T20:20:09;16.00;99.90
59128;DHT22;44912;52.754;5.994;2022-10-04T20:22:54;16.00;99.90
59128;DHT22;44912;52.754;5.994;2022-10-04T20:28:55;16.10;99.90
59128;DHT22;44912;52.754;5.994;2022-10-04T20:34:30;16.10;99.90
59128;DHT22;44912;52.754;5.994;2022-10-04T20:36:57;16.00;99.90
59128;DHT22;44912;52.754;5.994;2022-10-04T20:42:30;16.10;99.90
59128;DHT22;44912;52.754;5.994;2022-10-04T20:47:45;16.00;99.90
59128;DHT22;44912;52.754;5.994;2022-10-04T20:52:43;16.10;99.90
59128;DHT22;44912;52.754;5.994;2022-10-04T20:55:21;16.00;99.90
59128;DHT22;44912;52.754;5.994;2022-10-04T20:57:54;16.10;99.90
59128;DHT22;44912;52.754;5.994;2022-10-04T21:00:22;16.00;99.90
59128;DHT22;44912;52.754;5.994;2022-10-04T21:02:49;16.00;99.90
59128;DHT22;44912;52.754;5.994;2022-10-04T21:05:22;16.00;99.90
59128;DHT22;44912;52.754;5.994;2022-10-04T21:08:10;16.00;99.90
59128;DHT22;44912;52.754;5.994;2022-10-04T21:10:35;16.00;99.90
59128;DHT22;44912;52.754;5.994;2022-10-04T21:13:01;16.00;99.90
59128;DHT22;44912;52.754;5.994;2022-10-04T21:15:27;16.00;99.90
59128;DHT22;44912;52.754;5.994;2022-10-04T21:18:07;16.00;99.90
59128;DHT22;44912;52.754;5.994;2022-10-04T21:20:48;16.00;99.90
59128;DHT22;44912;52.754;5.994;2022-10-04T21:25:44;16.00;99.90
59128;DHT22;44912;52.754;5.994;2022-10-04T21:28:28;15.90;99.90
59128;DHT22;44912;52.754;5.994;2022-10-04T21:30:54;16.00;99.90
59128;DHT22;44912;52.754;5.994;2022-10-04T21:33:20;16.00;99.90
59128;DHT22;44912;52.754;5.994;2022-10-04T21:35:49;16.00;99.90
59128;DHT22;44912;52.754;5.994;2022-10-04T21:38:15;16.00;99.90
59128;DHT22;44912;52.754;5.994;2022-10-04T21:40:40;15.90;99.90
59128;DHT22;44912;52.754;5.994;2022-10-04T21:43:06;16.00;99.90
59128;DHT22;44912;52.754;5.994;2022-10-04T21:45:31;15.90;99.90
59128;DHT22;44912;52.754;5.994;2022-10-04T21:47:57;15.90;99.90
59128;DHT22;44912;52.754;5.994;2022-10-04T21:50:22;16.00;99.90
59128;DHT22;44912;52.754;5.994;2022-10-04T21:52:48;16.00;99.90
59128;DHT22;44912;52.754;5.994;2022-10-04T21:55:14;16.00;99.90
59128;DHT22;44912;52.754;5.994;2022-10-04T21:57:39;16.00;99.90
59128;DHT22;44912;52.754;5.994;2022-10-04T22:00:05;16.00;99.90
59128;DHT22;44912;52.754;5.994;2022-10-04T22:02:31;15.90;99.90
59128;DHT22;44912;52.754;5.994;2022-10-04T22:04:57;16.00;99.90
59128;DHT22;44912;52.754;5.994;2022-10-04T22:07:22;16.00;99.90
59128;DHT22;44912;52.754;5.994;2022-10-04T22:09:48;16.00;99.90
59128;DHT22;44912;52.754;5.994;2022-10-04T22:12:13;16.00;99.90
59128;DHT22;44912;52.754;5.994;2022-10-04T22:14:39;16.00;99.90
59128;DHT22;44912;52.754;5.994;2022-10-04T22:17:05;16.00;99.90
59128;DHT22;44912;52.754;5.994;2022-10-04T22:19:30;16.00;99.90
59128;DHT22;44912;52.754;5.994;2022-10-04T22:21:56;16.00;99.90
59128;DHT22;44912;52.754;5.994;2022-10-04T22:24:21;16.00;99.90
59128;DHT22;44912;52.754;5.994;2022-10-04T22:26:47;16.00;99.90
59128;DHT22;44912;52.754;5.994;2022-10-04T22:29:15;16.00;99.90
59128;DHT22;44912;52.754;5.994;2022-10-04T22:31:45;15.90;99.90
59128;DHT22;44912;52.754;5.994;2022-10-04T22:34:16;16.00;99.90
59128;DHT22;44912;52.754;5.994;2022-10-04T22:36:43;15.90;99.90
59128;DHT22;44912;52.754;5.994;2022-10-04T22:39:12;15.90;99.90
59128;DHT22;44912;52.754;5.994;2022-10-04T22:46:59;15.90;99.90
59128;DHT22;44912;52.754;5.994;2022-10-04T22:49:28;15.90;99.90
59128;DHT22;44912;52.754;5.994;2022-10-04T22:51:55;15.90;99.90
59128;DHT22;44912;52.754;5.994;2022-10-04T22:54:25;15.90;99.90
59128;DHT22;44912;52.754;5.994;2022-10-04T22:56:51;15.90;99.90
59128;DHT22;44912;52.754;5.994;2022-10-04T22:59:18;15.90;99.90
59128;DHT22;44912;52.754;5.994;2022-10-04T23:01:45;15.90;99.90
59128;DHT22;44912;52.754;5.994;2022-10-04T23:04:21;15.90;99.90
59128;DHT22;44912;52.754;5.994;2022-10-04T23:06:47;15.90;99.90
59128;DHT22;44912;52.754;5.994;2022-10-04T23:09:13;15.90;99.90
59128;DHT22;44912;52.754;5.994;2022-10-04T23:11:38;15.90;99.90
59128;DHT22;44912;52.754;5.994;2022-10-04T23:14:04;15.90;99.90
59128;DHT22;44912;52.754;5.994;2022-10-04T23:16:30;15.90;99.90
59128;DHT22;44912;52.754;5.994;2022-10-04T23:19:14;15.90;99.90
59128;DHT22;44912;52.754;5.994;2022-10-04T23:21:43;15.90;99.90
59128;DHT22;44912;52.754;5.994;2022-10-04T23:24:16;15.90;99.90
59128;DHT22;44912;52.754;5.994;2022-10-04T23:26:44;15.90;99.90
59128;DHT22;44912;52.754;5.994;2022-10-04T23:29:28;15.80;99.90
59128;DHT22;44912;52.754;5.994;2022-10-04T23:31:54;15.90;99.90
59128;DHT22;44912;52.754;5.994;2022-10-04T23:34:31;15.80;99.90
59128;DHT22;44912;52.754;5.994;2022-10-04T23:36:57;15.80;99.90
59128;DHT22;44912;52.754;5.994;2022-10-04T23:39:28;15.90;99.90
59128;DHT22;44912;52.754;5.994;2022-10-04T23:41:55;15.80;99.90
59128;DHT22;44912;52.754;5.994;2022-10-04T23:44:31;15.80;99.90
59128;DHT22;44912;52.754;5.994;2022-10-04T23:46:58;15.80;99.90
59128;DHT22;44912;52.754;5.994;2022-10-04T23:49:23;15.80;99.90
59128;DHT22;44912;52.754;5.994;2022-10-04T23:51:54;15.80;99.90
59128;DHT22;44912;52.754;5.994;2022-10-04T23:54:21;15.80;99.90
59128;DHT22;44912;52.754;5.994;2022-10-04T23:56:46;15.80;99.90
59128;DHT22;44912;52.754;5.994;2022-10-04T23:59:18;15.80;99.90
